Time,TemperatureF,DewpointF,PressureIn,WindDirection,WindDirectionDegrees,WindSpeedMPH,WindSpeedGustMPH,Humidity,HourlyPrecipIn,Conditions,Clouds,dailyrainin,SoftwareType,DateUTC
2013-08-02 00:02:00,61.0,56.0,-100.00,SE,127,3.0,5.0,85,0.00,,,0.00,,2013-08-02 05:02:00,
2013-08-02 00:12:00,61.0,56.0,-100.00,SE,127,3.0,5.0,85,0.00,,,0.00,,2013-08-02 05:12:00,
2013-08-02 00:22:00,61.0,56.0,-100.00,SE,127,3.0,5.0,85,0.00,,,0.00,,2013-08-02 05:22:00,
2013-08-02 00:53:00,62.0,57.0,-100.00,SE,144,4.0,6.0,83,0.00,,,0.00,,2013-08-02 05:53:00,
2013-08-02 01:02:00,62.0,57.0,-100.00,SE,144,4.0,6.0,83,0.00,,,0.00,,2013-08-02 06:02:00,
2013-08-02 01:12:00,62.0,57.0,-100.00,SE,144,4.0,6.0,83,0.00,,,0.00,,2013-08-02 06:12:00,
2013-08-02 01:22:00,62.0,57.0,-100.00,SE,144,4.0,6.0,83,0.00,,,0.00,,2013-08-02 06:22:00,
2013-08-02 01:52:00,63.0,56.0,-100.00,South,189,4.0,6.0,79,0.01,,,0.01,,2013-08-02 06:52:00,
2013-08-02 02:02:00,63.0,56.0,-100.00,South,189,4.0,6.0,79,0.01,,,0.01,,2013-08-02 07:02:00,
2013-08-02 02:12:00,63.0,56.0,-100.00,South,189,4.0,6.0,79,0.01,,,0.01,,2013-08-02 07:12:00,
2013-08-02 02:22:00,63.0,56.0,-100.00,South,189,4.0,6.0,79,0.01,,,0.01,,2013-08-02 07:22:00,
2013-08-02 02:53:00,61.0,59.0,-100.00,SE,127,4.0,17.0,94,0.06,,,0.07,,2013-08-02 07:53:00,
2013-08-02 03:02:00,61.0,59.0,-100.00,SE,127,4.0,17.0,94,0.06,,,0.07,,2013-08-02 08:02:00,
2013-08-02 03:12:00,61.0,59.0,-100.00,SE,127,4.0,17.0,94,0.06,,,0.07,,2013-08-02 08:12:00,
2013-08-02 03:22:00,61.0,59.0,-100.00,SE,127,4.0,17.0,94,0.06,,,0.07,,2013-08-02 08:22:00,
2013-08-02 03:54:00,61.0,60.0,-100.00,NW,305,4.0,10.0,95,0.40,,,0.47,,2013-08-02 08:54:00,
2013-08-02 04:02:00,61.0,60.0,-100.00,NW,305,4.0,10.0,95,0.40,,,0.47,,2013-08-02 09:02:00,
2013-08-02 04:12:00,61.0,60.0,-100.00,NW,305,4.0,10.0,95,0.40,,,0.47,,2013-08-02 09:12:00,
2013-08-02 04:23:00,61.0,60.0,-100.00,NW,305,4.0,10.0,95,0.40,,,0.47,,2013-08-02 09:23:00,
2013-08-02 04:53:00,62.0,61.0,-100.00,SSE,168,5.0,9.0,95,0.01,,,0.48,,2013-08-02 09:53:00,
2013-08-02 05:03:00,62.0,61.0,-100.00,SSE,168,5.0,9.0,95,0.01,,,0.48,,2013-08-02 10:03:00,
2013-08-02 05:12:00,62.0,61.0,-100.00,SSE,168,5.0,9.0,95,0.01,,,0.48,,2013-08-02 10:12:00,
2013-08-02 05:23:00,62.0,61.0,-100.00,SSE,168,5.0,9.0,95,0.01,,,0.48,,2013-08-02 10:23:00,
2013-08-02 05:52:00,61.0,60.0,-100.00,SSE,152,5.0,9.0,95,0.00,,,0.48,,2013-08-02 10:52:00,
2013-08-02 06:02:00,61.0,60.0,-100.00,SSE,152,5.0,9.0,95,0.00,,,0.48,,2013-08-02 11:02:00,
2013-08-02 06:12:00,61.0,60.0,-100.00,SSE,152,5.0,9.0,95,0.00,,,0.48,,2013-08-02 11:12:00,
2013-08-02 06:23:00,61.0,60.0,-100.00,SSE,152,5.0,9.0,95,0.00,,,0.48,,2013-08-02 11:23:00,
2013-08-02 06:52:00,62.0,60.0,-100.00,SSE,164,6.0,12.0,94,0.00,,,0.48,,2013-08-02 11:52:00,
2013-08-02 07:02:00,62.0,60.0,-100.00,SSE,164,6.0,12.0,94,0.00,,,0.48,,2013-08-02 12:02:00,
2013-08-02 07:12:00,62.0,60.0,-100.00,SSE,164,6.0,12.0,94,0.00,,,0.48,,2013-08-02 12:12:00,
2013-08-02 07:22:00,62.0,60.0,-100.00,SSE,164,6.0,12.0,94,0.00,,,0.48,,2013-08-02 12:22:00,
2013-08-02 07:52:00,65.0,61.0,-100.00,South,183,3.0,14.0,88,0.00,,,0.48,,2013-08-02 12:52:00,
2013-08-02 08:02:00,65.0,61.0,-100.00,South,183,3.0,14.0,88,0.00,,,0.48,,2013-08-02 13:02:00,
2013-08-02 08:12:00,65.0,61.0,-100.00,South,183,3.0,14.0,88,0.00,,,0.48,,2013-08-02 13:12:00,
2013-08-02 08:22:00,65.0,61.0,-100.00,South,183,3.0,14.0,88,0.00,,,0.48,,2013-08-02 13:22:00,
2013-08-02 08:52:00,67.0,62.0,-100.00,SW,235,5.0,13.0,85,0.00,,,0.48,,2013-08-02 13:52:00,
2013-08-02 09:02:00,67.0,62.0,-100.00,SW,235,5.0,13.0,85,0.00,,,0.48,,2013-08-02 14:02:00,
2013-08-02 09:12:00,67.0,62.0,-100.00,SW,235,5.0,13.0,85,0.00,,,0.48,,2013-08-02 14:12:00,
2013-08-02 09:22:00,67.0,62.0,-100.00,SW,235,5.0,13.0,85,0.00,,,0.48,,2013-08-02 14:22:00,
2013-08-02 09:53:00,70.0,65.0,-100.00,WNW,296,7.0,12.0,83,0.00,,,0.48,,2013-08-02 14:53:00,
2013-08-02 10:03:00,70.0,65.0,-100.00,WNW,296,7.0,12.0,83,0.00,,,0.48,,2013-08-02 15:03:00,
2013-08-02 10:12:00,70.0,65.0,-100.00,WNW,296,7.0,12.0,83,0.00,,,0.48,,2013-08-02 15:12:00,
2013-08-02 10:22:00,70.0,65.0,-100.00,WNW,296,7.0,12.0,83,0.00,,,0.48,,2013-08-02 15:22:00,
2013-08-02 10:53:00,73.0,65.0,-100.00,NNW,335,7.0,13.0,77,0.00,,,0.48,,2013-08-02 15:53:00,
2013-08-02 11:02:00,73.0,65.0,-100.00,NNW,335,7.0,13.0,77,0.00,,,0.48,,2013-08-02 16:02:00,
2013-08-02 11:12:00,73.0,65.0,-100.00,NNW,335,7.0,13.0,77,0.00,,,0.48,,2013-08-02 16:12:00,
2013-08-02 11:22:00,73.0,65.0,-100.00,NNW,335,7.0,13.0,77,0.00,,,0.48,,2013-08-02 16:22:00,
2013-08-02 11:53:00,75.0,64.0,-100.00,WNW,294,5.0,11.0,69,0.00,,,0.48,,2013-08-02 16:53:00,
2013-08-02 12:02:00,75.0,64.0,-100.00,WNW,294,5.0,11.0,69,0.00,,,0.48,,2013-08-02 17:02:00,
2013-08-02 12:12:00,75.0,64.0,-100.00,WNW,294,5.0,11.0,69,0.00,,,0.48,,2013-08-02 17:12:00,
2013-08-02 12:22:00,75.0,64.0,-100.00,WNW,294,5.0,11.0,69,0.00,,,0.48,,2013-08-02 17:22:00,
2013-08-02 12:52:00,77.0,62.0,-100.00,WNW,291,9.0,13.0,59,0.00,,,0.48,,2013-08-02 17:52:00,
2013-08-02 13:02:00,77.0,62.0,-100.00,WNW,291,9.0,13.0,59,0.00,,,0.48,,2013-08-02 18:02:00,
2013-08-02 13:12:00,77.0,62.0,-100.00,WNW,291,9.0,13.0,59,0.00,,,0.48,,2013-08-02 18:12:00,
2013-08-02 13:22:00,77.0,62.0,-100.00,WNW,291,9.0,13.0,59,0.00,,,0.48,,2013-08-02 18:22:00,
2013-08-02 14:52:00,79.0,57.0,-100.00,WNW,300,10.0,16.0,47,-99.99,,,0.48,,2013-08-02 19:52:00,
2013-08-02 15:02:00,79.0,57.0,-100.00,WNW,300,10.0,16.0,47,-99.99,,,0.48,,2013-08-02 20:02:00,
2013-08-02 15:12:00,79.0,57.0,-100.00,WNW,300,10.0,16.0,47,-99.99,,,0.48,,2013-08-02 20:12:00,
2013-08-02 15:22:00,79.0,57.0,-100.00,WNW,300,10.0,16.0,47,-99.99,,,0.48,,2013-08-02 20:22:00,
2013-08-02 15:52:00,78.0,58.0,-100.00,WNW,299,9.0,17.0,50,0.00,,,0.48,,2013-08-02 20:52:00,
2013-08-02 16:03:00,78.0,58.0,-100.00,WNW,299,9.0,17.0,50,0.00,,,0.48,,2013-08-02 21:03:00,
2013-08-02 16:12:00,78.0,58.0,-100.00,WNW,299,9.0,17.0,50,0.00,,,0.48,,2013-08-02 21:12:00,
2013-08-02 16:22:00,78.0,58.0,-100.00,WNW,299,9.0,17.0,50,0.00,,,0.48,,2013-08-02 21:22:00,
2013-08-02 16:53:00,76.0,57.0,-100.00,WNW,298,9.0,15.0,51,0.00,,,0.48,,2013-08-02 21:53:00,
2013-08-02 17:02:00,76.0,57.0,-100.00,WNW,298,9.0,15.0,51,0.00,,,0.48,,2013-08-02 22:02:00,
2013-08-02 17:12:00,76.0,57.0,-100.00,WNW,298,9.0,15.0,51,0.00,,,0.48,,2013-08-02 22:12:00,
2013-08-02 17:22:00,76.0,57.0,-100.00,WNW,298,9.0,15.0,51,0.00,,,0.48,,2013-08-02 22:22:00,
2013-08-02 17:52:00,75.0,57.0,-100.00,NW,322,7.0,15.0,54,0.00,,,0.48,,2013-08-02 22:52:00,
2013-08-02 18:02:00,75.0,57.0,-100.00,NW,322,7.0,15.0,54,0.00,,,0.48,,2013-08-02 23:02:00,
2013-08-02 18:12:00,75.0,57.0,-100.00,NW,322,7.0,15.0,54,0.00,,,0.48,,2013-08-02 23:12:00,
2013-08-02 18:22:00,75.0,57.0,-100.00,NW,322,7.0,15.0,54,0.00,,,0.48,,2013-08-02 23:22:00,
2013-08-02 18:53:00,73.0,58.0,-100.00,NW,316,4.0,13.0,59,0.00,,,-99.99,,2013-08-02 23:53:00,
2013-08-02 19:02:00,73.0,58.0,-100.00,NW,316,4.0,13.0,59,0.00,,,-99.99,,2013-08-03 00:02:00,
2013-08-02 19:12:00,73.0,58.0,-100.00,NW,316,4.0,13.0,59,0.00,,,-99.99,,2013-08-03 00:12:00,
2013-08-02 19:22:00,73.0,58.0,-100.00,NW,316,4.0,13.0,59,0.00,,,-99.99,,2013-08-03 00:22:00,
2013-08-02 19:52:00,71.0,58.0,-100.00,NNW,341,4.0,11.0,63,0.00,,,0.48,,2013-08-03 00:52:00,
2013-08-02 20:02:00,71.0,58.0,-100.00,NNW,341,4.0,11.0,63,0.00,,,0.48,,2013-08-03 01:02:00,
2013-08-02 20:12:00,71.0,58.0,-100.00,NNW,341,4.0,11.0,63,0.00,,,0.48,,2013-08-03 01:12:00,
2013-08-02 20:22:00,71.0,58.0,-100.00,NNW,341,4.0,11.0,63,0.00,,,0.48,,2013-08-03 01:22:00,
2013-08-02 20:53:00,67.0,58.0,-100.00,North,354,4.0,6.0,72,0.00,,,0.48,,2013-08-03 01:53:00,
2013-08-02 21:02:00,67.0,58.0,-100.00,North,354,4.0,6.0,72,0.00,,,0.48,,2013-08-03 02:02:00,
2013-08-02 21:12:00,67.0,58.0,-100.00,North,354,4.0,6.0,72,0.00,,,0.48,,2013-08-03 02:12:00,
2013-08-02 21:22:00,67.0,58.0,-100.00,North,354,4.0,6.0,72,0.00,,,0.48,,2013-08-03 02:22:00,
2013-08-02 21:52:00,66.0,56.0,-100.00,North,6,4.0,7.0,71,0.00,,,0.48,,2013-08-03 02:52:00,
2013-08-02 22:02:00,66.0,56.0,-100.00,North,6,4.0,7.0,71,0.00,,,0.48,,2013-08-03 03:02:00,
2013-08-02 22:12:00,66.0,56.0,-100.00,North,6,4.0,7.0,71,0.00,,,0.48,,2013-08-03 03:12:00,
2013-08-02 22:22:00,66.0,56.0,-100.00,North,6,4.0,7.0,71,0.00,,,0.48,,2013-08-03 03:22:00,
2013-08-02 22:53:00,64.0,54.0,-100.00,NNE,16,5.0,11.0,70,0.00,,,0.48,,2013-08-03 03:53:00,
2013-08-02 23:02:00,64.0,54.0,-100.00,NNE,16,5.0,11.0,70,0.00,,,0.48,,2013-08-03 04:02:00,
2013-08-02 23:12:00,64.0,54.0,-100.00,NNE,16,5.0,11.0,70,0.00,,,0.48,,2013-08-03 04:12:00,
2013-08-02 23:22:00,64.0,54.0,-100.00,NNE,16,5.0,11.0,70,0.00,,,0.48,,2013-08-03 04:22:00,
2013-08-02 23:53:00,62.0,54.0,-100.00,NNE,26,5.0,7.0,75,0.00,,,0.48,,2013-08-03 04:53:00,